Edgerton, WY (82635)

1:52 PM MST on February 09, 2016 (GMT -0700)
APRSWXNET | | Change Station
CLOSE
Current Station
Personal Weather Station
Location: Midwest, WY
Elevation: 4865 ft
Nearby Weather Stations

Elev 4865 ft 43.41 °N, 106.28 °W | Updated 39 minutes ago

Partly Cloudy
Partly Cloudy
42 °F
Feels Like 42 °F
N
2
Wind Variable Wind from SSE
Gusts 5.0 mph

Today
High -- | Low -- °F
--% Chance of Precip.
Yesterday
High -- | Low -- °F
Precip. -- in
Pressure 30.38 in
Visibility 10.0 miles
Clouds Clear
Windchill 42 °F
Dew Point 30 °F
Humidity 62%
Rainfall in
Snow Depth Not available.
7:11 AM 5:27 PM
New Moon, 2% visible
METAR KCPR 091953Z 22018G24KT 10SM CLR 03/M05 A3032 RMK AO2 PK WND 22035/1941 SLP285 T00281050
Pressure 30.38 in
Visibility 10.0 miles
Clouds Clear
Windchill 42 °F
Dew Point 30 °F
Humidity 62%
Rainfall in
Snow Depth Not available.
7:11 AM 5:27 PM
New Moon, 2% visible
METAR KCPR 091953Z 22018G24KT 10SM CLR 03/M05 A3032 RMK AO2 PK WND 22035/1941 SLP285 T00281050

10-Day Weather Forecast

Almanac

Astronomy

Feb. 09, 2016 Rise Set
Actual Time
Civil Twilight
Nautical Twilight
Astronomical Twilight
Moon
Length of Visible Light
Length of Day
Tomorrow will be .
, % of the Moon is Illuminated

Today's Extremes

State Highs State Lows

Community

WunderPhotos

Upload Photos

1,891,683 photos uploaded!

WunderBlog® & News

Nearby

Air Quality

  Air Quality AQ Index Pollutant
Not available.

Snow Depth

Station Depth Elevation

Earthquake Activity

City Distance Mag. Time & Date
Minimum magnitude displayed is 2.5.

Coastal Water Temperatures

Place Temperature

Stations

Nearby Weather Stations

Station Location Temp. Windchill Dew Point Humidity Wind Precip. Elev Updated Type
                   

Watches & Warnings

There are currently no watches in effect.